Walcourt, Belgium
Current Conditions -  °F | °C
As of 2:55 AM on Tuesday 25 Nov 2014 (Local Time) from EBFS Reporting Station
Broken Clouds Broken Clouds  
Wind Chill: 32°   Ceiling: 22000
Heat Index: 36°   Visibility: 5mi
Dew Point: 34°   Wind: 5mph
Humidity: 93%   Direction: 80°E
Pressure: 30.24"   Gusts: NA
Location:  50.25°N, 4.44°E
Report Text: EBFS 250155Z 08004KT 8000 BKN220 02/01 Q1024 BLU
Loading
Personal Weather Stations






























Interactive Weather Map New forecast layout! Learn more

10-Day Weather Forecast

Advertisements
Track Severe Weather on mobile